createdAt,value
2023-04-21T00:00:41.762Z,23.20
2023-04-21T00:02:43.705Z,19.25
2023-04-21T00:04:46.151Z,21.55
2023-04-21T00:06:48.072Z,22.42
2023-04-21T00:08:50.840Z,20.63
2023-04-21T00:10:52.781Z,20.58
2023-04-21T00:12:54.512Z,17.25
2023-04-21T00:14:56.312Z,23.38
2023-04-21T00:17:00.337Z,20.08
2023-04-21T00:19:02.593Z,19.20
2023-04-21T00:21:04.773Z,18.67
2023-04-21T00:23:06.619Z,15.75
2023-04-21T00:25:08.878Z,16.92
2023-04-21T00:27:11.598Z,19.00
2023-04-21T00:29:16.678Z,19.38
2023-04-21T00:31:18.643Z,19.65
2023-04-21T00:33:21.128Z,23.25
2023-04-21T00:35:26.157Z,19.50
2023-04-21T00:37:27.874Z,24.02
2023-04-21T00:39:29.735Z,20.45
2023-04-21T00:41:34.271Z,24.38
2023-04-21T00:43:39.251Z,27.00
2023-04-21T00:45:41.136Z,19.85
2023-04-21T00:47:43.494Z,23.83
2023-04-21T00:49:46.776Z,25.13
2023-04-21T00:51:48.529Z,23.17
2023-04-21T00:53:51.552Z,16.60
2023-04-21T00:55:53.413Z,19.80
2023-04-21T00:57:56.616Z,23.23
2023-04-21T00:59:58.526Z,17.75
2023-04-21T01:02:00.500Z,19.20
2023-04-21T01:04:04.798Z,23.95
2023-04-21T01:06:07.088Z,24.60
2023-04-21T01:08:08.843Z,20.83
2023-04-21T01:10:11.137Z,26.05
2023-04-21T01:12:13.457Z,22.15
2023-04-21T01:14:15.247Z,18.67
2023-04-21T01:16:18.348Z,17.65
2023-04-21T01:18:20.157Z,28.50
2023-04-21T01:20:21.930Z,19.45
2023-04-21T01:22:23.704Z,20.90
2023-04-21T01:24:35.434Z,20.77
2023-04-21T01:26:37.205Z,21.77
2023-04-21T01:28:39.015Z,20.88
2023-04-21T01:30:40.765Z,22.40
2023-04-21T01:32:42.637Z,21.77
2023-04-21T01:34:45.536Z,22.60
2023-04-21T01:36:47.457Z,21.95
2023-04-21T01:38:49.274Z,23.55
2023-04-21T01:40:53.482Z,21.27
2023-04-21T01:42:55.840Z,20.50
2023-04-21T01:44:57.758Z,17.25
2023-04-21T01:46:59.505Z,24.95
2023-04-21T01:49:03.402Z,16.55
2023-04-21T01:51:05.430Z,23.88
2023-04-21T01:53:07.222Z,19.25
2023-04-21T01:55:09.868Z,22.15
2023-04-21T01:57:12.031Z,21.73
2023-04-21T01:59:13.790Z,20.75
2023-04-21T02:01:15.614Z,26.80
2023-04-21T02:03:17.671Z,20.63
2023-04-21T02:05:22.762Z,23.08
2023-04-21T02:07:24.544Z,21.20
2023-04-21T02:09:26.490Z,24.50
2023-04-21T02:11:28.314Z,21.50
2023-04-21T02:13:30.051Z,23.15
2023-04-21T02:15:31.883Z,17.33
2023-04-21T02:17:33.727Z,19.48
2023-04-21T02:19:35.505Z,19.77
2023-04-21T02:21:37.386Z,21.77
2023-04-21T02:23:39.286Z,21.27
2023-04-21T02:25:41.027Z,22.73
2023-04-21T02:27:42.861Z,17.02
2023-04-21T02:29:44.693Z,20.20
2023-04-21T02:32:00.641Z,19.30
2023-04-21T02:34:05.155Z,14.25
2023-04-21T02:36:07.332Z,16.08
2023-04-21T02:38:11.390Z,17.50
2023-04-21T02:40:16.017Z,20.45
2023-04-21T02:42:17.836Z,23.05
2023-04-21T02:44:19.595Z,20.08
2023-04-21T02:46:21.444Z,25.65
2023-04-21T02:48:23.336Z,25.23
2023-04-21T02:50:26.261Z,25.98
2023-04-21T02:52:28.104Z,25.25
2023-04-21T02:54:29.974Z,17.88
2023-04-21T02:56:32.165Z,20.30
2023-04-21T02:58:33.907Z,19.63
2023-04-21T03:00:35.912Z,22.77
2023-04-21T03:02:37.843Z,19.25
2023-04-21T03:04:39.950Z,19.73
2023-04-21T03:06:42.407Z,25.00
2023-04-21T03:08:44.235Z,21.55
2023-04-21T03:10:46.018Z,23.27
2023-04-21T03:12:47.769Z,22.02
2023-04-21T03:14:49.522Z,19.30
2023-04-21T03:16:51.487Z,25.17
2023-04-21T03:18:53.645Z,21.10
2023-04-21T03:21:00.408Z,22.45
2023-04-21T03:23:02.292Z,27.50
2023-04-21T03:25:05.140Z,28.90
2023-04-21T03:27:07.576Z,21.75
2023-04-21T03:29:10.467Z,26.25
2023-04-21T03:31:12.195Z,23.88
2023-04-21T03:33:13.980Z,22.20
2023-04-21T03:35:15.940Z,19.80
2023-04-21T03:37:17.730Z,23.52
2023-04-21T03:39:20.314Z,17.75
2023-04-21T03:41:22.481Z,24.25
2023-04-21T03:43:24.238Z,20.02
2023-04-21T03:45:26.123Z,20.23
2023-04-21T03:47:28.040Z,22.25
2023-04-21T03:49:29.889Z,22.00
2023-04-21T03:51:32.539Z,22.40
2023-04-21T03:53:34.264Z,26.25
2023-04-21T03:55:36.129Z,22.35
2023-04-21T03:57:41.206Z,23.95
2023-04-21T03:59:43.281Z,26.30
2023-04-21T04:01:45.012Z,25.35
2023-04-21T04:03:47.026Z,22.35
2023-04-21T04:05:48.797Z,29.00
2023-04-21T04:07:50.538Z,29.58
2023-04-21T04:09:52.317Z,22.30
2023-04-21T04:11:54.073Z,17.45
2023-04-21T04:13:55.837Z,24.67
2023-04-21T04:15:58.792Z,24.80
2023-04-21T04:18:00.642Z,19.88
2023-04-21T04:20:04.821Z,21.13
2023-04-21T04:22:06.646Z,19.30
2023-04-21T04:24:12.167Z,23.52
2023-04-21T04:26:13.877Z,26.77
2023-04-21T04:28:16.652Z,19.85
2023-04-21T04:30:18.409Z,19.50
2023-04-21T04:32:22.480Z,25.52
2023-04-21T04:34:24.573Z,24.23
2023-04-21T04:36:28.581Z,33.35
2023-04-21T04:38:30.437Z,24.50
2023-04-21T04:40:33.439Z,29.45
2023-04-21T04:42:36.888Z,24.02
2023-04-21T04:44:38.770Z,33.38
2023-04-21T04:46:40.915Z,25.13
2023-04-21T04:48:42.791Z,24.70
2023-04-21T04:50:44.976Z,24.50
2023-04-21T04:52:47.625Z,26.02
2023-04-21T04:54:49.452Z,26.58
2023-04-21T04:56:51.210Z,21.63
2023-04-21T04:58:52.944Z,24.10
2023-04-21T05:00:54.851Z,24.27
2023-04-21T05:02:56.730Z,23.15
2023-04-21T05:04:58.817Z,29.58
2023-04-21T05:07:00.841Z,24.80
2023-04-21T05:09:02.832Z,23.45
2023-04-21T05:11:04.814Z,16.30
2023-04-21T05:13:06.865Z,26.50
2023-04-21T05:15:09.606Z,20.98
2023-04-21T05:17:11.432Z,28.80
2023-04-21T05:19:13.223Z,25.27
2023-04-21T05:21:14.978Z,29.70
2023-04-21T05:23:16.869Z,30.02
2023-04-21T05:25:18.702Z,24.15
2023-04-21T05:27:20.520Z,23.33
2023-04-21T05:29:22.245Z,24.52
2023-04-21T05:31:25.025Z,26.23
2023-04-21T05:33:27.113Z,23.10
2023-04-21T05:35:31.286Z,26.90
2023-04-21T05:37:33.154Z,30.50
2023-04-21T05:39:34.974Z,26.92
2023-04-21T05:41:36.884Z,24.95
2023-04-21T05:43:38.724Z,30.77
2023-04-21T05:45:41.188Z,25.33
2023-04-21T05:47:43.158Z,25.92
2023-04-21T05:49:50.437Z,24.77
2023-04-21T05:51:52.409Z,27.40
2023-04-21T05:53:54.405Z,29.73
2023-04-21T05:55:56.121Z,30.17
2023-04-21T05:57:57.998Z,21.27
2023-04-21T05:59:59.764Z,23.17
2023-04-21T06:02:04.779Z,19.10
2023-04-21T06:04:07.039Z,34.17
2023-04-21T06:06:11.627Z,22.23
2023-04-21T06:08:13.867Z,20.90
2023-04-21T06:10:19.624Z,22.10
2023-04-21T06:12:21.343Z,28.80
2023-04-21T06:14:25.277Z,22.25
2023-04-21T06:16:27.364Z,25.50
2023-04-21T06:18:29.211Z,24.92
2023-04-21T06:20:31.219Z,26.20
2023-04-21T06:22:33.801Z,22.27
2023-04-21T06:24:35.636Z,22.55
2023-04-21T06:26:37.637Z,24.35
2023-04-21T06:28:39.777Z,22.90
2023-04-21T06:30:41.615Z,25.00
2023-04-21T06:32:43.881Z,19.38
2023-04-21T06:34:45.828Z,21.65
2023-04-21T06:36:47.680Z,20.15
2023-04-21T06:38:49.582Z,19.27
2023-04-21T06:40:52.067Z,21.50
2023-04-21T06:42:53.855Z,20.10
2023-04-21T06:44:56.766Z,19.92
2023-04-21T06:46:58.646Z,18.38
2023-04-21T06:49:00.539Z,17.95
2023-04-21T06:51:02.888Z,23.33
2023-04-21T06:53:05.027Z,26.63
2023-04-21T06:55:07.566Z,18.98
2023-04-21T06:57:09.551Z,16.10
2023-04-21T06:59:11.608Z,13.93
2023-04-21T07:01:13.737Z,14.75
2023-04-21T07:03:16.206Z,16.92
2023-04-21T07:05:18.239Z,14.73
2023-04-21T07:07:20.114Z,16.85
2023-04-21T07:09:22.553Z,13.23
2023-04-21T07:11:24.433Z,14.57
2023-04-21T07:13:26.470Z,13.43
2023-04-21T07:15:28.284Z,16.63
2023-04-21T07:17:30.267Z,11.77
2023-04-21T07:19:33.548Z,12.40
2023-04-21T07:21:36.448Z,12.30
2023-04-21T07:23:38.335Z,10.05
2023-04-21T07:25:40.330Z,11.85
2023-04-21T07:27:42.285Z,12.70
2023-04-21T07:29:44.286Z,12.88
2023-04-21T07:31:48.389Z,10.00
2023-04-21T07:33:50.923Z,12.38
2023-04-21T07:35:53.370Z,15.75
2023-04-21T07:37:55.327Z,10.10
2023-04-21T07:39:57.169Z,8.55
2023-04-21T07:41:58.957Z,11.43
2023-04-21T07:44:01.036Z,11.18
2023-04-21T07:46:03.153Z,9.50
2023-04-21T07:48:07.981Z,10.98
2023-04-21T07:50:10.799Z,8.02
2023-04-21T07:52:12.892Z,11.15
2023-04-21T07:54:14.856Z,10.57
2023-04-21T07:56:17.450Z,9.57
2023-04-21T07:58:19.682Z,8.45
2023-04-21T08:00:22.167Z,13.63
2023-04-21T08:02:24.445Z,7.78
2023-04-21T08:04:27.403Z,10.80
2023-04-21T08:06:29.907Z,10.20
2023-04-21T08:08:32.198Z,7.63
2023-04-21T08:10:34.673Z,8.25
2023-04-21T08:12:36.751Z,9.85
2023-04-21T08:14:38.914Z,8.38
2023-04-21T08:16:42.662Z,13.25
2023-04-21T08:18:48.435Z,9.38
2023-04-21T08:20:52.808Z,8.30
2023-04-21T08:22:55.191Z,8.27
2023-04-21T08:24:57.407Z,8.05
2023-04-21T08:26:59.640Z,7.75
2023-04-21T08:29:04.032Z,8.05
2023-04-21T08:31:06.688Z,6.53
2023-04-21T08:33:13.811Z,9.45
2023-04-21T08:35:16.201Z,6.47
2023-04-21T08:37:20.079Z,10.00
2023-04-21T08:39:22.335Z,6.93
2023-04-21T08:41:25.729Z,6.03
2023-04-21T08:43:29.651Z,6.22
2023-04-21T08:45:32.304Z,6.97
2023-04-21T08:47:35.489Z,9.95
2023-04-21T08:49:39.978Z,6.75
2023-04-21T08:51:42.894Z,7.65
2023-04-21T08:53:46.846Z,8.68
2023-04-21T08:56:07.540Z,6.95
2023-04-21T08:58:15.896Z,6.35
2023-04-21T09:00:18.525Z,5.20
2023-04-21T09:02:21.014Z,9.27
2023-04-21T09:04:23.722Z,6.00
2023-04-21T09:06:43.742Z,5.93
2023-04-21T09:08:56.473Z,5.95
2023-04-21T09:11:01.737Z,7.82
2023-04-21T09:13:09.238Z,6.53
2023-04-21T09:15:12.852Z,6.68
2023-04-21T09:17:21.550Z,9.57
2023-04-21T09:19:23.876Z,7.80
2023-04-21T09:21:31.436Z,10.02
2023-04-21T09:23:44.081Z,5.95
2023-04-21T09:25:46.683Z,5.72
2023-04-21T09:27:49.008Z,6.07
2023-04-21T09:29:51.368Z,8.40
2023-04-21T09:31:53.490Z,8.02
2023-04-21T09:34:00.461Z,8.95
2023-04-21T09:36:03.488Z,10.13
2023-04-21T09:38:12.692Z,9.45
2023-04-21T09:40:15.718Z,8.25
2023-04-21T09:42:17.693Z,9.40
2023-04-21T09:44:21.354Z,12.90
2023-04-21T09:46:24.823Z,9.20
2023-04-21T09:48:32.098Z,9.45
2023-04-21T09:51:11.483Z,10.50
2023-04-21T09:52:57.627Z,12.05
2023-04-21T09:55:04.471Z,11.70
2023-04-21T09:57:07.587Z,14.32
2023-04-21T09:59:17.548Z,11.55
2023-04-21T10:01:20.410Z,9.77
2023-04-21T10:03:27.946Z,10.10
2023-04-21T10:05:30.427Z,12.40
2023-04-21T10:07:35.060Z,14.68
2023-04-21T10:09:43.451Z,9.05
2023-04-21T10:11:45.974Z,9.68
2023-04-21T10:13:48.169Z,12.18
2023-04-21T10:16:03.459Z,13.15
2023-04-21T10:18:22.004Z,17.00
2023-04-21T10:20:24.203Z,13.50
2023-04-21T10:22:36.535Z,13.38
2023-04-21T10:24:41.389Z,12.90
2023-04-21T10:26:43.644Z,12.55
2023-04-21T10:28:48.765Z,12.23
2023-04-21T10:30:51.646Z,11.80
2023-04-21T10:33:04.910Z,15.48
2023-04-21T10:35:10.166Z,13.90
2023-04-21T10:37:15.953Z,8.27
2023-04-21T10:39:31.756Z,7.20
2023-04-21T10:41:35.519Z,5.45
2023-04-21T10:43:48.171Z,6.28
2023-04-21T10:45:51.615Z,7.55
2023-04-21T10:47:54.404Z,5.03
2023-04-21T10:49:58.519Z,8.15
2023-04-21T10:52:02.742Z,7.32
2023-04-21T10:54:06.216Z,7.55
2023-04-21T10:56:08.596Z,7.43
2023-04-21T10:58:10.870Z,9.07
2023-04-21T11:00:19.318Z,7.15
2023-04-21T11:02:21.891Z,7.03
2023-04-21T11:04:24.880Z,11.13
2023-04-21T11:06:27.647Z,8.65
2023-04-21T11:08:30.926Z,8.27
2023-04-21T11:10:43.953Z,9.77
2023-04-21T11:12:46.226Z,9.52
2023-04-21T11:14:48.915Z,9.57
2023-04-21T11:16:51.662Z,9.07
2023-04-21T11:18:56.541Z,9.35
2023-04-21T11:21:08.802Z,8.98
2023-04-21T11:23:17.397Z,7.85
2023-04-21T11:25:19.806Z,10.18
2023-04-21T11:27:23.868Z,9.77
2023-04-21T11:29:26.246Z,8.82
2023-04-21T11:31:31.254Z,8.85
2023-04-21T11:33:38.271Z,10.70
2023-04-21T11:35:42.178Z,8.10
2023-04-21T11:37:44.226Z,9.07
2023-04-21T11:39:46.469Z,6.43
2023-04-21T11:41:50.113Z,6.72
2023-04-21T11:43:53.347Z,7.68
2023-04-21T11:45:55.588Z,7.80
2023-04-21T11:48:15.785Z,9.25
2023-04-21T11:50:32.680Z,7.57
2023-04-21T11:52:37.751Z,10.65
2023-04-21T11:54:40.086Z,8.57
2023-04-21T11:56:47.718Z,9.70
2023-04-21T11:58:51.971Z,9.77
2023-04-21T12:00:54.118Z,8.13
2023-04-21T12:02:57.321Z,10.13
2023-04-21T12:05:09.294Z,9.43
2023-04-21T12:07:11.878Z,11.40
2023-04-21T12:09:19.487Z,9.88
2023-04-21T12:11:21.560Z,11.82
2023-04-21T12:13:24.448Z,11.73
2023-04-21T12:15:26.807Z,15.80
2023-04-21T12:17:38.975Z,9.45
2023-04-21T12:19:42.765Z,11.32
2023-04-21T12:21:44.869Z,13.25
2023-04-21T12:23:47.067Z,12.00
2023-04-21T12:25:49.060Z,10.95
2023-04-21T12:27:54.407Z,12.75
2023-04-21T12:29:56.515Z,7.97
2023-04-21T12:31:58.800Z,8.45
2023-04-21T12:34:01.110Z,9.75
2023-04-21T12:36:03.257Z,9.32
2023-04-21T12:38:05.894Z,8.30
2023-04-21T12:40:09.033Z,9.50
2023-04-21T12:42:11.601Z,10.05
2023-04-21T12:44:14.684Z,8.82
2023-04-21T12:46:17.390Z,9.02
2023-04-21T12:48:20.792Z,8.05
2023-04-21T12:50:23.276Z,9.02
2023-04-21T12:52:25.807Z,8.35
2023-04-21T12:54:29.059Z,7.70
2023-04-21T12:56:31.594Z,8.73
2023-04-21T12:58:34.112Z,10.75
2023-04-21T13:00:36.851Z,9.40
2023-04-21T13:02:39.933Z,7.70
2023-04-21T13:04:42.929Z,7.32
2023-04-21T13:06:45.239Z,9.38
2023-04-21T13:08:47.896Z,12.52
2023-04-21T13:10:50.206Z,9.77
2023-04-21T13:12:52.939Z,8.35
2023-04-21T13:14:55.433Z,7.38
2023-04-21T13:16:58.066Z,6.40
2023-04-21T13:19:00.875Z,7.53
2023-04-21T13:21:03.477Z,8.60
2023-04-21T13:23:11.512Z,7.57
2023-04-21T13:25:14.456Z,7.05
2023-04-21T13:27:16.711Z,6.38
2023-04-21T13:29:19.017Z,6.00
2023-04-21T13:31:21.492Z,9.55
2023-04-21T13:33:24.198Z,8.65
2023-04-21T13:35:27.062Z,9.25
2023-04-21T13:37:29.567Z,6.13
2023-04-21T13:39:32.074Z,8.90
2023-04-21T13:41:35.277Z,7.90
2023-04-21T13:43:37.726Z,8.02
2023-04-21T13:45:40.122Z,9.05
2023-04-21T13:47:42.775Z,6.70
2023-04-21T13:49:45.157Z,9.10
2023-04-21T13:51:47.277Z,7.45
2023-04-21T13:53:49.500Z,6.97
2023-04-21T13:55:53.322Z,7.90
2023-04-21T13:57:55.643Z,8.35
2023-04-21T13:59:57.989Z,6.80
2023-04-21T14:02:00.744Z,6.93
2023-04-21T14:04:03.964Z,8.63
2023-04-21T14:06:06.724Z,6.93
2023-04-21T14:08:09.205Z,8.07
2023-04-21T14:10:12.518Z,9.65
2023-04-21T14:12:14.858Z,8.45
2023-04-21T14:14:27.587Z,7.03
2023-04-21T14:16:39.749Z,7.68
2023-04-21T14:18:45.438Z,7.32
2023-04-21T14:20:47.805Z,8.27
2023-04-21T14:22:50.374Z,6.88
2023-04-21T14:24:52.402Z,10.07
2023-04-21T14:26:55.019Z,7.43
2023-04-21T14:28:57.482Z,12.07
2023-04-21T14:30:59.687Z,11.57
2023-04-21T14:33:02.479Z,10.50
2023-04-21T14:35:06.073Z,9.00
2023-04-21T14:37:08.443Z,9.38
2023-04-21T14:39:10.975Z,8.85
2023-04-21T14:41:13.720Z,9.48
2023-04-21T14:43:16.657Z,8.55
2023-04-21T14:45:19.373Z,9.68
2023-04-21T14:47:23.036Z,10.55
2023-04-21T14:49:25.668Z,10.82
2023-04-21T14:51:28.400Z,9.23
2023-04-21T14:53:30.956Z,8.20
2023-04-21T14:55:34.179Z,9.85
2023-04-21T14:57:36.807Z,14.50
2023-04-21T14:59:39.580Z,14.00
2023-04-21T15:01:42.126Z,9.80
2023-04-21T15:03:46.123Z,10.38
2023-04-21T15:05:49.470Z,8.25
2023-04-21T15:07:52.244Z,8.63
2023-04-21T15:09:55.909Z,9.55
2023-04-21T15:11:58.091Z,8.93
2023-04-21T15:14:00.847Z,10.23
2023-04-21T15:16:03.564Z,10.82
2023-04-21T15:18:06.136Z,8.80
2023-04-21T15:20:10.508Z,10.30
2023-04-21T15:22:13.163Z,12.07
2023-04-21T15:24:15.749Z,13.60
2023-04-21T15:26:18.026Z,12.90
2023-04-21T15:28:20.473Z,13.10
2023-04-21T15:30:23.223Z,16.58
2023-04-21T15:32:25.889Z,12.02
2023-04-21T15:34:29.692Z,15.00
2023-04-21T15:36:32.536Z,9.80
2023-04-21T15:38:35.478Z,12.38
2023-04-21T15:40:46.280Z,14.05
2023-04-21T15:42:55.691Z,11.77
2023-04-21T15:44:58.217Z,13.45
2023-04-21T15:47:00.651Z,15.18
2023-04-21T15:49:04.304Z,16.10
2023-04-21T15:51:07.378Z,16.25
2023-04-21T15:53:09.561Z,13.82
2023-04-21T15:55:12.942Z,18.20
2023-04-21T15:57:15.804Z,13.18
2023-04-21T15:59:18.263Z,13.50
2023-04-21T16:01:21.829Z,14.98
2023-04-21T16:03:24.874Z,14.85
2023-04-21T16:05:29.110Z,13.13
2023-04-21T16:07:31.652Z,11.57
2023-04-21T16:09:34.420Z,13.80
2023-04-21T16:11:36.787Z,14.13
2023-04-21T16:13:39.010Z,12.55
2023-04-21T16:15:44.002Z,12.13
2023-04-21T16:17:46.625Z,13.88
2023-04-21T16:19:49.252Z,12.30
2023-04-21T16:21:51.485Z,13.93
2023-04-21T16:23:54.176Z,12.73
2023-04-21T16:25:56.876Z,15.23
2023-04-21T16:27:59.492Z,13.93
2023-04-21T16:30:01.913Z,13.27
2023-04-21T16:32:04.633Z,12.50
2023-04-21T16:34:07.322Z,13.93
2023-04-21T16:36:09.757Z,12.93
2023-04-21T16:38:13.969Z,14.27
2023-04-21T16:40:16.449Z,14.73
2023-04-21T16:42:18.549Z,13.75
2023-04-21T16:44:21.170Z,11.65
2023-04-21T16:46:25.551Z,11.07
2023-04-21T16:48:28.590Z,14.27
2023-04-21T16:50:31.259Z,14.38
2023-04-21T16:52:33.717Z,15.63
2023-04-21T16:54:39.027Z,15.43
2023-04-21T16:56:41.576Z,15.38
2023-04-21T16:58:43.966Z,15.45
2023-04-21T17:00:46.615Z,13.27
2023-04-21T17:02:49.158Z,15.52
2023-04-21T17:04:52.089Z,13.23
2023-04-21T17:06:54.214Z,12.85
2023-04-21T17:09:00.039Z,11.60
2023-04-21T17:11:02.599Z,12.45
2023-04-21T17:13:06.347Z,15.38
2023-04-21T17:15:09.554Z,14.43
2023-04-21T17:17:11.796Z,14.52
2023-04-21T17:19:14.206Z,15.52
2023-04-21T17:21:19.730Z,15.35
2023-04-21T17:23:22.197Z,17.20
2023-04-21T17:25:24.355Z,16.52
2023-04-21T17:27:26.552Z,18.60
2023-04-21T17:29:28.922Z,18.80
2023-04-21T17:31:33.389Z,16.85
2023-04-21T17:33:38.339Z,18.45
2023-04-21T17:35:46.019Z,19.05
2023-04-21T17:37:54.759Z,19.65
2023-04-21T17:39:59.209Z,17.55
2023-04-21T17:42:03.297Z,16.20
2023-04-21T17:44:05.570Z,20.25
2023-04-21T17:46:10.367Z,20.55
2023-04-21T17:48:12.773Z,18.45
2023-04-21T17:50:15.117Z,19.83
2023-04-21T17:52:17.481Z,18.52
2023-04-21T17:54:19.672Z,15.27
2023-04-21T17:56:22.564Z,16.45
2023-04-21T17:58:26.449Z,19.48
2023-04-21T18:00:34.612Z,19.90
2023-04-21T18:02:36.891Z,20.80
2023-04-21T18:04:39.702Z,22.90
2023-04-21T18:06:42.440Z,22.67
2023-04-21T18:08:47.269Z,21.50
2023-04-21T18:10:49.166Z,22.98
2023-04-21T18:12:51.468Z,21.02
2023-04-21T18:14:53.655Z,23.88
2023-04-21T18:16:55.766Z,22.77
2023-04-21T18:19:01.979Z,25.63
2023-04-21T18:21:04.607Z,26.70
2023-04-21T18:23:06.686Z,27.23
2023-04-21T18:25:09.183Z,24.92
2023-04-21T18:27:11.560Z,25.60
2023-04-21T18:29:17.987Z,25.10
2023-04-21T18:31:21.903Z,27.13
2023-04-21T18:33:27.517Z,25.02
2023-04-21T18:35:29.803Z,25.45
2023-04-21T18:37:32.038Z,23.17
2023-04-21T18:39:34.169Z,24.52
2023-04-21T18:41:37.305Z,25.92
2023-04-21T18:43:39.511Z,24.90
2023-04-21T18:45:41.964Z,25.13
2023-04-21T18:47:45.958Z,24.83
2023-04-21T18:49:48.227Z,25.13
2023-04-21T18:51:50.363Z,24.65
2023-04-21T18:53:52.500Z,29.27
2023-04-21T18:55:54.554Z,26.27
2023-04-21T18:57:59.370Z,26.13
2023-04-21T19:00:01.722Z,29.10
2023-04-21T19:02:06.480Z,27.15
2023-04-21T19:04:10.357Z,28.67
2023-04-21T19:06:12.593Z,26.63
2023-04-21T19:08:14.911Z,26.08
2023-04-21T19:10:17.090Z,26.90
2023-04-21T19:12:20.277Z,30.08
2023-04-21T19:14:22.669Z,26.33
2023-04-21T19:16:24.964Z,26.42
2023-04-21T19:18:26.951Z,23.45
2023-04-21T19:20:29.959Z,28.40
2023-04-21T19:22:33.671Z,27.33
2023-04-21T19:24:39.024Z,26.05
2023-04-21T19:26:41.339Z,29.63
2023-04-21T19:28:43.638Z,30.38
2023-04-21T19:30:45.494Z,27.90
2023-04-21T19:32:47.619Z,29.60
2023-04-21T19:34:49.729Z,31.58
2023-04-21T19:36:53.031Z,29.42
2023-04-21T19:38:55.111Z,31.52
2023-04-21T19:40:57.565Z,34.03
2023-04-21T19:42:59.359Z,31.13
2023-04-21T19:45:01.225Z,34.03
2023-04-21T19:47:03.230Z,33.22
2023-04-21T19:49:05.296Z,32.20
2023-04-21T19:51:07.786Z,32.53
2023-04-21T19:53:14.623Z,31.60
2023-04-21T19:55:16.665Z,28.80
2023-04-21T19:57:18.722Z,33.58
2023-04-21T19:59:20.764Z,29.52
2023-04-21T20:01:22.912Z,30.35
2023-04-21T20:03:25.022Z,31.98
2023-04-21T20:05:27.122Z,37.85
2023-04-21T20:07:29.052Z,30.75
2023-04-21T20:09:31.227Z,30.92
2023-04-21T20:11:34.151Z,32.28
2023-04-21T20:13:36.212Z,32.40
2023-04-21T20:15:39.537Z,29.10
2023-04-21T20:17:47.356Z,31.88
2023-04-21T20:19:49.337Z,28.25
2023-04-21T20:21:51.197Z,31.20
2023-04-21T20:23:56.456Z,34.35
2023-04-21T20:25:58.511Z,31.95
2023-04-21T20:28:00.758Z,32.22
2023-04-21T20:30:03.085Z,30.05
2023-04-21T20:32:05.187Z,37.97
2023-04-21T20:34:08.508Z,32.15
2023-04-21T20:36:12.176Z,37.67
2023-04-21T20:38:14.671Z,36.03
2023-04-21T20:40:18.894Z,39.53
2023-04-21T20:42:21.961Z,37.38
2023-04-21T20:44:24.594Z,35.28
2023-04-21T20:46:27.605Z,32.67
2023-04-21T20:48:29.571Z,36.78
2023-04-21T20:50:31.421Z,33.55
2023-04-21T20:52:33.217Z,35.90
2023-04-21T20:54:35.553Z,36.90
2023-04-21T20:56:39.931Z,37.17
2023-04-21T20:58:41.750Z,32.13
2023-04-21T21:00:43.696Z,35.40
2023-04-21T21:02:45.872Z,36.30
2023-04-21T21:04:47.930Z,39.08
2023-04-21T21:06:49.857Z,37.10
2023-04-21T21:08:54.153Z,35.38
2023-04-21T21:10:56.194Z,38.83
2023-04-21T21:13:00.231Z,37.13
2023-04-21T21:15:02.110Z,40.80
2023-04-21T21:17:03.952Z,38.78
2023-04-21T21:19:06.073Z,42.03
2023-04-21T21:21:08.273Z,41.08
2023-04-21T21:23:10.091Z,41.20
2023-04-21T21:25:12.113Z,40.17
2023-04-21T21:27:13.924Z,45.85
2023-04-21T21:29:15.757Z,48.03
2023-04-21T21:31:17.648Z,43.35
2023-04-21T21:33:20.971Z,46.10
2023-04-21T21:35:23.176Z,44.88
2023-04-21T21:37:25.126Z,44.03
2023-04-21T21:39:27.281Z,47.70
2023-04-21T21:41:32.262Z,44.65
2023-04-21T21:43:34.281Z,45.47
2023-04-21T21:45:36.211Z,44.75
2023-04-21T21:47:41.720Z,46.00
2023-04-21T21:49:44.943Z,42.00
2023-04-21T21:51:46.714Z,45.05
2023-04-21T21:53:48.569Z,42.78
2023-04-21T21:55:50.451Z,44.70
2023-04-21T21:57:52.722Z,39.90
2023-04-21T21:59:54.614Z,44.90
2023-04-21T22:01:56.484Z,43.92
2023-04-21T22:03:58.458Z,42.10
2023-04-21T22:06:00.979Z,41.47
2023-04-21T22:08:04.201Z,43.47
2023-04-21T22:10:07.023Z,42.53
2023-04-21T22:12:09.458Z,43.45
2023-04-21T22:14:21.801Z,38.30
2023-04-21T22:16:25.651Z,45.83
2023-04-21T22:18:27.702Z,46.40
2023-04-21T22:20:30.279Z,47.42
2023-04-21T22:22:32.213Z,42.13
2023-04-21T22:24:34.366Z,46.45
2023-04-21T22:26:36.540Z,40.00
2023-04-21T22:28:38.875Z,39.85
2023-04-21T22:30:41.072Z,44.80
2023-04-21T22:32:43.569Z,41.78
2023-04-21T22:34:45.996Z,41.28
2023-04-21T22:36:47.782Z,45.40
2023-04-21T22:38:49.654Z,43.47
2023-04-21T22:40:51.550Z,40.45
2023-04-21T22:42:54.206Z,42.40
2023-04-21T22:44:56.442Z,42.33
2023-04-21T22:47:00.870Z,42.40
2023-04-21T22:49:03.954Z,42.95
2023-04-21T22:51:07.643Z,39.78
2023-04-21T22:53:09.415Z,39.03
2023-04-21T22:55:11.220Z,43.63
2023-04-21T22:57:14.523Z,44.90
2023-04-21T22:59:16.963Z,51.33
2023-04-21T23:01:19.133Z,46.40
2023-04-21T23:03:22.372Z,47.22
2023-04-21T23:05:24.352Z,45.58
2023-04-21T23:07:26.155Z,48.03
2023-04-21T23:09:28.024Z,44.75
2023-04-21T23:11:29.947Z,45.70
2023-04-21T23:13:33.067Z,46.85
2023-04-21T23:15:34.891Z,48.08
2023-04-21T23:17:36.742Z,52.33
2023-04-21T23:19:38.881Z,47.15
2023-04-21T23:21:41.092Z,50.38
2023-04-21T23:23:43.076Z,57.17
2023-04-21T23:25:45.474Z,49.47
2023-04-21T23:27:47.455Z,48.10
2023-04-21T23:29:49.286Z,50.95
2023-04-21T23:31:51.248Z,51.97
2023-04-21T23:33:53.390Z,50.78
2023-04-21T23:35:56.434Z,51.05
2023-04-21T23:37:58.310Z,50.28
2023-04-21T23:40:00.071Z,49.53
2023-04-21T23:42:02.780Z,48.95
2023-04-21T23:44:04.558Z,55.25
2023-04-21T23:46:06.411Z,54.63
2023-04-21T23:48:11.906Z,56.63
2023-04-21T23:50:13.986Z,51.72
2023-04-21T23:52:15.826Z,52.83
2023-04-21T23:54:17.675Z,50.47
2023-04-21T23:56:19.438Z,51.90
2023-04-21T23:58:21.188Z,50.35
